PWSweather.com
Personal Weather Stations
Station Observations
COONRAPIDS
Minneapolis, MN 55433

Minneapolis, MN 55433

Lat: 45.187721, Lon: -93.36828

Elevation: 898

Station Type: Davis Vantage Pro 2

High Low Average
Temperature 43.0°F6.1°C 24.3°F-4.3°C 34.7°F1.5°C
Dew Point 30.0°F-1.1°C 19.8°F-6.8°C 25.4°F-3.7°C
Winds 3.5 mph 5.6 kmh Calm Calm Calm SSECalm SSE
Wind Gusts 12.7 mph20.4 kmh -- 2.0 mph3.2 kmh
Humidity 84% 58% 69%
Pressure 30.13 in1020.3 mb 29.73 in1006.8 mb -
Precipitation 0.05 in1.3 mm - -
Hour Temp Dew Point Humidity Winds Wind Gusts Pressure Precip Precip Rate Daily Precip Total
12:00 AM 24.0°F-4.4°C 19.6°F-6.9°C 83% Calm Calm -- 30.12 in1020.0 mb - 0.00 in0.0 mm 0.04 in1.0 mm
12:10 AM 24.0°F-4.4°C 19.6°F-6.9°C 83% Calm Calm -- 30.12 in1020.0 mb - 0.00 in0.0 mm 0.04 in1.0 mm
12:20 AM 24.0°F-4.4°C 19.6°F-6.9°C 83% Calm Calm -- 30.12 in1020.0 mb - 0.00 in0.0 mm 0.04 in1.0 mm
12:30 AM 24.0°F-4.4°C 19.6°F-6.9°C 83% Calm Calm -- 30.12 in1020.0 mb - 0.00 in0.0 mm 0.04 in1.0 mm
12:40 AM 24.0°F-4.4°C 19.6°F-6.9°C 83% Calm Calm -- 30.12 in1020.0 mb - 0.00 in0.0 mm 0.04 in1.0 mm
12:50 AM 24.0°F-4.4°C 19.6°F-6.9°C 83% Calm Calm -- 30.13 in1020.3 mb - 0.00 in0.0 mm 0.04 in1.0 mm
01:00 AM 24.3°F-4.3°C 19.8°F-6.8°C 83% Calm Calm -- 30.12 in1020.0 mb - 0.00 in0.0 mm 0.00 in0.0 mm
01:10 AM 24.5°F-4.2°C 20.1°F-6.6°C 83% Calm Calm -- 30.12 in1020.0 mb - 0.00 in0.0 mm 0.00 in0.0 mm
01:20 AM 24.6°F-4.1°C 20.5°F-6.4°C 84% Calm Calm -- 30.12 in1020.0 mb - 0.00 in0.0 mm 0.00 in0.0 mm
01:30 AM 24.8°F-4.0°C 20.7°F-6.3°C 84% Calm Calm -- 30.13 in1020.3 mb - 0.00 in0.0 mm 0.00 in0.0 mm
01:40 AM 25.0°F-3.9°C 20.8°F-6.2°C 84% Calm Calm -- 30.13 in1020.3 mb - 0.00 in0.0 mm 0.00 in0.0 mm
01:50 AM 25.3°F-3.7°C 21.1°F-6.1°C 84% Calm Calm -- 30.12 in1020.0 mb - 0.00 in0.0 mm 0.00 in0.0 mm
02:00 AM 25.4°F-3.7°C 21.2°F-6.0°C 84% Calm Calm -- 30.12 in1020.0 mb - 0.00 in0.0 mm 0.00 in0.0 mm
02:10 AM 25.4°F-3.7°C 21.2°F-6.0°C 84% Calm Calm -- 30.12 in1020.0 mb - 0.00 in0.0 mm 0.00 in0.0 mm
02:20 AM 25.5°F-3.6°C 21.3°F-5.9°C 84% Calm Calm -- 30.12 in1020.0 mb - 0.00 in0.0 mm 0.00 in0.0 mm
02:30 AM 25.7°F-3.5°C 21.5°F-5.8°C 84% Calm Calm -- 30.11 in1019.6 mb - 0.00 in0.0 mm 0.00 in0.0 mm
02:40 AM 26.0°F-3.3°C 21.8°F-5.7°C 84% Calm Calm -- 30.12 in1020.0 mb - 0.00 in0.0 mm 0.00 in0.0 mm
02:50 AM 26.2°F-3.2°C 21.7°F-5.7°C 83% Calm Calm -- 30.12 in1020.0 mb - 0.00 in0.0 mm 0.00 in0.0 mm
03:00 AM 26.1°F-3.3°C 21.6°F-5.8°C 83% Calm Calm -- 30.12 in1020.0 mb - 0.00 in0.0 mm 0.00 in0.0 mm
03:10 AM 26.3°F-3.2°C 21.8°F-5.7°C 83% Calm Calm -- 30.12 in1020.0 mb - 0.00 in0.0 mm 0.00 in0.0 mm
03:20 AM 26.6°F-3.0°C 22.1°F-5.5°C 83% Calm Calm -- 30.12 in1020.0 mb - 0.00 in0.0 mm 0.00 in0.0 mm
03:30 AM 26.7°F-2.9°C 22.2°F-5.4°C 83% Calm Calm -- 30.12 in1020.0 mb - 0.00 in0.0 mm 0.00 in0.0 mm
03:40 AM 26.8°F-2.9°C 22.3°F-5.4°C 83% Calm Calm -- 30.12 in1020.0 mb - 0.00 in0.0 mm 0.00 in0.0 mm
03:50 AM 27.1°F-2.7°C 22.7°F-5.2°C 83% Calm Calm -- 30.11 in1019.6 mb - 0.00 in0.0 mm 0.00 in0.0 mm
04:00 AM 27.6°F-2.4°C 22.8°F-5.1°C 82% Calm Calm -- 30.12 in1020.0 mb - 0.00 in0.0 mm 0.00 in0.0 mm
04:10 AM 27.8°F-2.3°C 23.0°F-5.0°C 82% Calm Calm -- 30.11 in1019.6 mb - 0.00 in0.0 mm 0.00 in0.0 mm
04:20 AM 28.2°F-2.1°C 23.1°F-4.9°C 81% Calm Calm -- 30.11 in1019.6 mb - 0.00 in0.0 mm 0.00 in0.0 mm
04:30 AM 28.4°F-2.0°C 23.0°F-5.0°C 80% Calm Calm -- 30.11 in1019.6 mb - 0.00 in0.0 mm 0.00 in0.0 mm
04:40 AM 28.7°F-1.8°C 23.3°F-4.8°C 80% Calm Calm -- 30.10 in1019.3 mb - 0.00 in0.0 mm 0.00 in0.0 mm
04:50 AM 29.0°F-1.7°C 23.0°F-5.0°C 78% Calm Calm -- 30.10 in1019.3 mb - 0.00 in0.0 mm 0.00 in0.0 mm
05:00 AM 29.3°F-1.5°C 23.3°F-4.8°C 78% Calm Calm -- 30.10 in1019.3 mb - 0.00 in0.0 mm 0.00 in0.0 mm
05:10 AM 29.6°F-1.3°C 23.3°F-4.8°C 77% Calm Calm 1.2 mph1.9 kmh 30.10 in1019.3 mb - 0.00 in0.0 mm 0.00 in0.0 mm
05:20 AM 29.7°F-1.3°C 23.4°F-4.8°C 77% Calm Calm -- 30.10 in1019.3 mb - 0.00 in0.0 mm 0.00 in0.0 mm
05:30 AM 29.7°F-1.3°C 23.1°F-4.9°C 76% Calm Calm -- 30.09 in1019.0 mb - 0.00 in0.0 mm 0.00 in0.0 mm
05:40 AM 29.7°F-1.3°C 23.1°F-4.9°C 76% Calm Calm -- 30.10 in1019.3 mb - 0.00 in0.0 mm 0.00 in0.0 mm
05:50 AM 29.8°F-1.2°C 23.2°F-4.9°C 76% Calm Calm -- 30.09 in1019.0 mb - 0.00 in0.0 mm 0.00 in0.0 mm
06:00 AM 29.8°F-1.2°C 23.2°F-4.9°C 76% Calm Calm -- 30.10 in1019.3 mb - 0.00 in0.0 mm 0.00 in0.0 mm
06:10 AM 29.7°F-1.3°C 23.1°F-4.9°C 76% Calm Calm -- 30.09 in1019.0 mb - 0.00 in0.0 mm 0.00 in0.0 mm
06:20 AM 29.7°F-1.3°C 23.4°F-4.8°C 77% Calm Calm -- 30.09 in1019.0 mb - 0.00 in0.0 mm 0.00 in0.0 mm
06:30 AM 29.7°F-1.3°C 23.4°F-4.8°C 77% Calm Calm -- 30.09 in1019.0 mb - 0.00 in0.0 mm 0.00 in0.0 mm
06:40 AM 29.7°F-1.3°C 23.4°F-4.8°C 77% Calm Calm -- 30.09 in1019.0 mb - 0.00 in0.0 mm 0.00 in0.0 mm
06:50 AM 29.8°F-1.2°C 23.4°F-4.8°C 77% Calm Calm -- 30.09 in1019.0 mb - 0.00 in0.0 mm 0.00 in0.0 mm
07:00 AM 29.9°F-1.2°C 23.6°F-4.7°C 77% Calm Calm -- 30.09 in1019.0 mb - 0.00 in0.0 mm 0.00 in0.0 mm
07:10 AM 30.0°F-1.1°C 23.3°F-4.8°C 76% Calm Calm -- 30.10 in1019.3 mb - 0.00 in0.0 mm 0.00 in0.0 mm
07:20 AM 30.0°F-1.1°C 23.4°F-4.8°C 76% Calm Calm -- 30.10 in1019.3 mb - 0.00 in0.0 mm 0.00 in0.0 mm
07:30 AM 29.9°F-1.2°C 23.3°F-4.8°C 76% Calm Calm -- 30.10 in1019.3 mb - 0.00 in0.0 mm 0.00 in0.0 mm
07:40 AM 29.8°F-1.2°C 23.5°F-4.7°C 77% Calm Calm -- 30.09 in1019.0 mb - 0.00 in0.0 mm 0.00 in0.0 mm
07:50 AM 30.0°F-1.1°C 23.3°F-4.8°C 76% Calm Calm -- 30.09 in1019.0 mb - 0.00 in0.0 mm 0.00 in0.0 mm
08:00 AM 30.1°F-1.1°C 23.4°F-4.8°C 76% Calm Calm -- 30.09 in1019.0 mb - 0.00 in0.0 mm 0.00 in0.0 mm
08:10 AM 30.2°F-1.0°C 23.5°F-4.7°C 76% Calm Calm -- 30.09 in1019.0 mb - 0.00 in0.0 mm 0.00 in0.0 mm
08:20 AM 30.4°F-0.9°C 23.4°F-4.8°C 75% Calm Calm 2.3 mph3.7 kmh 30.08 in1018.6 mb - 0.00 in0.0 mm 0.00 in0.0 mm
08:30 AM 30.6°F-0.8°C 23.6°F-4.7°C 75% Calm Calm -- 30.08 in1018.6 mb - 0.00 in0.0 mm 0.00 in0.0 mm
08:40 AM 30.8°F-0.7°C 23.5°F-4.7°C 74% Calm Calm -- 30.08 in1018.6 mb - 0.00 in0.0 mm 0.00 in0.0 mm
08:50 AM 31.1°F-0.5°C 23.5°F-4.7°C 73% Calm Calm 3.5 mph5.6 kmh 30.08 in1018.6 mb - 0.00 in0.0 mm 0.00 in0.0 mm
09:00 AM 31.4°F-0.3°C 23.7°F-4.6°C 73% Calm Calm -- 30.08 in1018.6 mb - 0.00 in0.0 mm 0.00 in0.0 mm
09:10 AM 31.4°F-0.3°C 23.4°F-4.8°C 72% Calm Calm -- 30.07 in1018.3 mb - 0.00 in0.0 mm 0.00 in0.0 mm
09:20 AM 31.6°F-0.2°C 23.6°F-4.7°C 72% Calm Calm -- 30.07 in1018.3 mb - 0.00 in0.0 mm 0.00 in0.0 mm
09:30 AM 31.9°F-0.1°C 23.5°F-4.7°C 71% Calm Calm -- 30.06 in1017.9 mb - 0.00 in0.0 mm 0.00 in0.0 mm
09:40 AM 32.1°F0.1°C 23.8°F-4.6°C 71% Calm Calm -- 30.06 in1017.9 mb - 0.00 in0.0 mm 0.00 in0.0 mm
09:50 AM 32.4°F0.2°C 24.0°F-4.4°C 71% 1.2 mph ESE1.9 kmh ESE -- 30.06 in1017.9 mb - 0.00 in0.0 mm 0.00 in0.0 mm
10:00 AM 32.6°F0.3°C 23.9°F-4.5°C 70% Calm Calm 3.5 mph5.6 kmh 30.06 in1017.9 mb - 0.00 in0.0 mm 0.00 in0.0 mm
10:10 AM 32.9°F0.5°C 24.2°F-4.3°C 70% Calm Calm -- 30.06 in1017.9 mb - 0.00 in0.0 mm 0.00 in0.0 mm
10:20 AM 33.5°F0.8°C 24.4°F-4.2°C 69% Calm Calm -- 30.06 in1017.9 mb - 0.00 in0.0 mm 0.00 in0.0 mm
10:30 AM 34.1°F1.2°C 25.0°F-3.9°C 69% 1.2 mph SE1.9 kmh SE 3.5 mph5.6 kmh 30.05 in1017.6 mb - 0.00 in0.0 mm 0.00 in0.0 mm
10:40 AM 34.5°F1.4°C 25.1°F-3.8°C 68% 1.2 mph SE1.9 kmh SE 2.3 mph3.7 kmh 30.05 in1017.6 mb - 0.00 in0.0 mm 0.00 in0.0 mm
10:50 AM 35.6°F2.0°C 25.7°F-3.5°C 67% Calm Calm 2.3 mph3.7 kmh 30.05 in1017.6 mb - 0.00 in0.0 mm 0.00 in0.0 mm
11:00 AM 36.2°F2.3°C 25.9°F-3.4°C 66% 3.5 mph SE5.6 kmh SE 6.9 mph11.1 kmh 30.04 in1017.3 mb - 0.00 in0.0 mm 0.00 in0.0 mm
11:10 AM 36.3°F2.4°C 26.0°F-3.3°C 66% Calm Calm 4.6 mph7.4 kmh 30.04 in1017.3 mb - 0.00 in0.0 mm 0.00 in0.0 mm
11:20 AM 36.4°F2.4°C 26.1°F-3.3°C 66% Calm Calm -- 30.04 in1017.3 mb - 0.00 in0.0 mm 0.00 in0.0 mm
11:30 AM 36.7°F2.6°C 26.1°F-3.3°C 65% 1.2 mph SE1.9 kmh SE 1.2 mph1.9 kmh 30.04 in1017.3 mb - 0.00 in0.0 mm 0.00 in0.0 mm
11:40 AM 37.0°F2.8°C 26.3°F-3.2°C 65% 3.5 mph SE5.6 kmh SE 6.9 mph11.1 kmh 30.04 in1017.3 mb - 0.01 in0.3 mm 0.01 in0.3 mm
11:50 AM 37.3°F2.9°C 26.6°F-3.0°C 65% Calm Calm 3.5 mph5.6 kmh 30.02 in1016.6 mb - 0.00 in0.0 mm 0.01 in0.3 mm
12:00 PM 37.8°F3.2°C 27.1°F-2.7°C 65% 2.3 mph SSE3.7 kmh SSE 6.9 mph11.1 kmh 30.02 in1016.6 mb - 0.00 in0.0 mm 0.01 in0.3 mm
12:10 PM 37.8°F3.2°C 26.7°F-2.9°C 64% Calm Calm -- 30.01 in1016.3 mb - 0.00 in0.0 mm 0.01 in0.3 mm
12:20 PM 38.1°F3.4°C 27.0°F-2.8°C 64% 2.3 mph SE3.7 kmh SE 3.5 mph5.6 kmh 30.01 in1016.3 mb - 0.00 in0.0 mm 0.01 in0.3 mm
12:30 PM 38.7°F3.7°C 27.2°F-2.7°C 63% Calm Calm -- 30.01 in1016.3 mb - 0.00 in0.0 mm 0.01 in0.3 mm
12:40 PM 38.9°F3.8°C 27.4°F-2.6°C 63% Calm Calm -- 30.00 in1015.9 mb - 0.00 in0.0 mm 0.01 in0.3 mm
12:50 PM 39.2°F4.0°C 27.7°F-2.4°C 63% 2.3 mph SE3.7 kmh SE 6.9 mph11.1 kmh 30.00 in1015.9 mb - 0.00 in0.0 mm 0.01 in0.3 mm
01:00 PM 39.6°F4.2°C 28.0°F-2.2°C 63% Calm Calm 4.6 mph7.4 kmh 30.00 in1015.9 mb - 0.00 in0.0 mm 0.01 in0.3 mm
01:10 PM 40.2°F4.6°C 28.6°F-1.9°C 63% Calm Calm 3.5 mph5.6 kmh 29.99 in1015.6 mb - 0.00 in0.0 mm 0.01 in0.3 mm
01:20 PM 40.4°F4.7°C 28.4°F-2.0°C 62% Calm Calm -- 29.99 in1015.6 mb - 0.00 in0.0 mm 0.01 in0.3 mm
01:30 PM 40.9°F4.9°C 28.9°F-1.7°C 62% 1.2 mph SE1.9 kmh SE 3.5 mph5.6 kmh 29.98 in1015.2 mb - 0.01 in0.3 mm 0.02 in0.5 mm
01:40 PM 41.3°F5.2°C 28.9°F-1.7°C 61% Calm Calm -- 29.98 in1015.2 mb - 0.01 in0.3 mm 0.02 in0.5 mm
01:50 PM 40.8°F4.9°C 28.8°F-1.8°C 62% Calm Calm -- 29.98 in1015.2 mb - 0.00 in0.0 mm 0.02 in0.5 mm
02:00 PM 40.8°F4.9°C 29.2°F-1.6°C 63% Calm Calm 3.5 mph5.6 kmh 29.97 in1014.9 mb - 0.00 in0.0 mm 0.02 in0.5 mm
02:10 PM 41.9°F5.5°C 29.4°F-1.4°C 61% Calm Calm -- 29.97 in1014.9 mb - 0.00 in0.0 mm 0.02 in0.5 mm
02:20 PM 42.0°F5.6°C 29.1°F-1.6°C 60% Calm Calm -- 29.96 in1014.6 mb - 0.01 in0.3 mm 0.03 in0.8 mm
02:30 PM 42.0°F5.6°C 29.6°F-1.3°C 61% 1.2 mph SSE1.9 kmh SSE 3.5 mph5.6 kmh 29.96 in1014.6 mb - 0.00 in0.0 mm 0.03 in0.8 mm
02:40 PM 42.5°F5.8°C 29.6°F-1.3°C 60% Calm Calm -- 29.95 in1014.2 mb - 0.00 in0.0 mm 0.03 in0.8 mm
02:50 PM 42.7°F5.9°C 29.4°F-1.4°C 59% 2.3 mph SE3.7 kmh SE 3.5 mph5.6 kmh 29.95 in1014.2 mb - 0.00 in0.0 mm 0.03 in0.8 mm
03:00 PM 42.8°F6.0°C 29.5°F-1.4°C 59% Calm Calm 3.5 mph5.6 kmh 29.95 in1014.2 mb - 0.00 in0.0 mm 0.03 in0.8 mm
03:10 PM 43.0°F6.1°C 29.2°F-1.6°C 58% 2.3 mph SSE3.7 kmh SSE 4.6 mph7.4 kmh 29.94 in1013.9 mb - 0.01 in0.3 mm 0.04 in1.0 mm
03:20 PM 43.0°F6.1°C 29.7°F-1.3°C 59% 1.2 mph ESE1.9 kmh ESE 4.6 mph7.4 kmh 29.93 in1013.5 mb - 0.00 in0.0 mm 0.04 in1.0 mm
03:30 PM 42.5°F5.8°C 29.6°F-1.3°C 60% 2.3 mph SE3.7 kmh SE 8.1 mph13.0 kmh 29.92 in1013.2 mb - 0.00 in0.0 mm 0.04 in1.0 mm
03:40 PM 42.0°F5.6°C 29.5°F-1.4°C 61% 2.3 mph SSE3.7 kmh SSE 4.6 mph7.4 kmh 29.92 in1013.2 mb - 0.00 in0.0 mm 0.04 in1.0 mm
03:50 PM 41.7°F5.4°C 29.6°F-1.3°C 62% Calm Calm -- 29.91 in1012.9 mb - 0.00 in0.0 mm 0.04 in1.0 mm
04:00 PM 41.7°F5.4°C 29.7°F-1.3°C 62% Calm Calm -- 29.91 in1012.9 mb - 0.00 in0.0 mm 0.04 in1.0 mm
04:10 PM 41.5°F5.3°C 29.8°F-1.2°C 63% 1.2 mph SE1.9 kmh SE 4.6 mph7.4 kmh 29.91 in1012.9 mb - 0.00 in0.0 mm 0.04 in1.0 mm
04:20 PM 41.3°F5.2°C 30.0°F-1.1°C 64% Calm Calm 4.6 mph7.4 kmh 29.91 in1012.9 mb - 0.00 in0.0 mm 0.04 in1.0 mm
04:30 PM 41.2°F5.1°C 29.9°F-1.2°C 64% 2.3 mph SE3.7 kmh SE 5.8 mph9.3 kmh 29.91 in1012.9 mb - 0.00 in0.0 mm 0.04 in1.0 mm
04:40 PM 41.1°F5.1°C 29.8°F-1.2°C 64% Calm Calm 4.6 mph7.4 kmh 29.91 in1012.9 mb - 0.00 in0.0 mm 0.04 in1.0 mm
04:50 PM 40.9°F4.9°C 30.0°F-1.1°C 65% Calm Calm 5.8 mph9.3 kmh 29.91 in1012.9 mb - 0.01 in0.3 mm 0.05 in1.3 mm
05:00 PM 40.6°F4.8°C 29.7°F-1.3°C 65% Calm Calm 2.3 mph3.7 kmh 29.91 in1012.9 mb - 0.00 in0.0 mm 0.05 in1.3 mm
05:10 PM 40.3°F4.6°C 29.1°F-1.6°C 64% Calm Calm -- 29.90 in1012.5 mb - 0.00 in0.0 mm 0.05 in1.3 mm
05:20 PM 40.2°F4.6°C 29.0°F-1.7°C 64% 1.2 mph S1.9 kmh S 3.5 mph5.6 kmh 29.90 in1012.5 mb - 0.00 in0.0 mm 0.05 in1.3 mm
05:30 PM 40.1°F4.5°C 28.9°F-1.7°C 64% Calm Calm 5.8 mph9.3 kmh 29.90 in1012.5 mb - 0.00 in0.0 mm 0.05 in1.3 mm
05:40 PM 40.0°F4.4°C 29.2°F-1.6°C 65% Calm Calm -- 29.89 in1012.2 mb - 0.00 in0.0 mm 0.05 in1.3 mm
05:50 PM 39.8°F4.3°C 29.0°F-1.7°C 65% Calm Calm 3.5 mph5.6 kmh 29.90 in1012.5 mb - 0.00 in0.0 mm 0.05 in1.3 mm
06:00 PM 39.6°F4.2°C 28.8°F-1.8°C 65% 1.2 mph SE1.9 kmh SE 3.5 mph5.6 kmh 29.89 in1012.2 mb - 0.00 in0.0 mm 0.05 in1.3 mm
06:10 PM 39.4°F4.1°C 29.0°F-1.7°C 66% Calm Calm -- 29.89 in1012.2 mb - 0.00 in0.0 mm 0.05 in1.3 mm
06:20 PM 39.2°F4.0°C 28.8°F-1.8°C 66% 2.3 mph SE3.7 kmh SE 6.9 mph11.1 kmh 29.89 in1012.2 mb - 0.00 in0.0 mm 0.05 in1.3 mm
06:30 PM 39.2°F4.0°C 28.8°F-1.8°C 66% 2.3 mph S3.7 kmh S 5.8 mph9.3 kmh 29.88 in1011.9 mb - 0.00 in0.0 mm 0.05 in1.3 mm
06:40 PM 39.0°F3.9°C 28.6°F-1.9°C 66% 1.2 mph SSE1.9 kmh SSE 3.5 mph5.6 kmh 29.88 in1011.9 mb - 0.00 in0.0 mm 0.05 in1.3 mm
06:50 PM 38.9°F3.8°C 28.5°F-1.9°C 66% 1.2 mph SE1.9 kmh SE 3.5 mph5.6 kmh 29.88 in1011.9 mb - 0.00 in0.0 mm 0.05 in1.3 mm
07:00 PM 38.8°F3.8°C 28.4°F-2.0°C 66% Calm Calm 3.5 mph5.6 kmh 29.88 in1011.9 mb - 0.00 in0.0 mm 0.05 in1.3 mm
07:10 PM 38.6°F3.7°C 28.2°F-2.1°C 66% Calm Calm 4.6 mph7.4 kmh 29.88 in1011.9 mb - 0.00 in0.0 mm 0.05 in1.3 mm
07:20 PM 38.5°F3.6°C 27.7°F-2.4°C 65% Calm Calm 4.6 mph7.4 kmh 29.87 in1011.5 mb - 0.00 in0.0 mm 0.05 in1.3 mm
07:30 PM 38.4°F3.6°C 27.7°F-2.4°C 65% Calm Calm -- 29.87 in1011.5 mb - 0.00 in0.0 mm 0.05 in1.3 mm
07:40 PM 38.3°F3.5°C 27.5°F-2.5°C 65% Calm Calm -- 29.87 in1011.5 mb - 0.00 in0.0 mm 0.05 in1.3 mm
07:50 PM 37.9°F3.3°C 27.2°F-2.7°C 65% Calm Calm -- 29.87 in1011.5 mb - 0.00 in0.0 mm 0.05 in1.3 mm
08:00 PM 37.9°F3.3°C 26.8°F-2.9°C 64% Calm Calm 1.2 mph1.9 kmh 29.87 in1011.5 mb - 0.00 in0.0 mm 0.05 in1.3 mm
08:10 PM 37.7°F3.2°C 26.6°F-3.0°C 64% Calm Calm -- 29.86 in1011.2 mb - 0.00 in0.0 mm 0.05 in1.3 mm
08:20 PM 37.5°F3.1°C 26.8°F-2.9°C 65% 1.2 mph SE1.9 kmh SE 4.6 mph7.4 kmh 29.86 in1011.2 mb - 0.00 in0.0 mm 0.05 in1.3 mm
08:30 PM 37.4°F3.0°C 26.3°F-3.2°C 64% Calm Calm -- 29.86 in1011.2 mb - 0.00 in0.0 mm 0.05 in1.3 mm
08:40 PM 37.1°F2.8°C 26.1°F-3.3°C 64% Calm Calm 3.5 mph5.6 kmh 29.85 in1010.8 mb - 0.00 in0.0 mm 0.05 in1.3 mm
08:50 PM 37.1°F2.8°C 26.0°F-3.3°C 64% 2.3 mph SE3.7 kmh SE 2.3 mph3.7 kmh 29.84 in1010.5 mb - 0.00 in0.0 mm 0.05 in1.3 mm
09:00 PM 37.0°F2.8°C 25.9°F-3.4°C 64% 1.2 mph SE1.9 kmh SE 4.6 mph7.4 kmh 29.84 in1010.5 mb - 0.00 in0.0 mm 0.05 in1.3 mm
09:10 PM 36.9°F2.7°C 25.9°F-3.4°C 64% Calm Calm -- 29.83 in1010.2 mb - 0.00 in0.0 mm 0.05 in1.3 mm
09:20 PM 36.8°F2.7°C 26.1°F-3.3°C 65% Calm Calm 6.9 mph11.1 kmh 29.83 in1010.2 mb - 0.00 in0.0 mm 0.05 in1.3 mm
09:30 PM 36.8°F2.7°C 25.8°F-3.4°C 64% Calm Calm -- 29.83 in1010.2 mb - 0.00 in0.0 mm 0.05 in1.3 mm
09:40 PM 36.8°F2.7°C 25.8°F-3.4°C 64% 1.2 mph SSE1.9 kmh SSE 5.8 mph9.3 kmh 29.82 in1009.8 mb - 0.00 in0.0 mm 0.05 in1.3 mm
09:50 PM 36.8°F2.7°C 25.8°F-3.4°C 64% Calm Calm -- 29.82 in1009.8 mb - 0.00 in0.0 mm 0.05 in1.3 mm
10:00 PM 36.8°F2.7°C 25.4°F-3.7°C 63% Calm Calm 3.5 mph5.6 kmh 29.81 in1009.5 mb - 0.00 in0.0 mm 0.05 in1.3 mm
10:10 PM 36.8°F2.7°C 25.4°F-3.7°C 63% Calm Calm 1.2 mph1.9 kmh 29.81 in1009.5 mb - 0.00 in0.0 mm 0.05 in1.3 mm
10:20 PM 36.7°F2.6°C 24.9°F-3.9°C 62% 1.2 mph SE1.9 kmh SE -- 29.80 in1009.1 mb - 0.00 in0.0 mm 0.05 in1.3 mm
10:30 PM 36.8°F2.7°C 25.0°F-3.9°C 62% Calm Calm 3.5 mph5.6 kmh 29.80 in1009.1 mb - 0.00 in0.0 mm 0.05 in1.3 mm
10:40 PM 36.6°F2.6°C 24.8°F-4.0°C 62% Calm Calm -- 29.79 in1008.8 mb - 0.00 in0.0 mm 0.05 in1.3 mm
10:50 PM 36.4°F2.4°C 24.6°F-4.1°C 62% 1.2 mph SE1.9 kmh SE 3.5 mph5.6 kmh 29.79 in1008.8 mb - 0.00 in0.0 mm 0.05 in1.3 mm
11:00 PM 36.3°F2.4°C 24.5°F-4.2°C 62% Calm Calm -- 29.78 in1008.5 mb - 0.00 in0.0 mm 0.05 in1.3 mm
11:10 PM 36.3°F2.4°C 24.1°F-4.4°C 61% 2.3 mph S3.7 kmh S 6.9 mph11.1 kmh 29.78 in1008.5 mb - 0.00 in0.0 mm 0.05 in1.3 mm
11:20 PM 36.4°F2.4°C 23.8°F-4.6°C 60% Calm Calm 4.6 mph7.4 kmh 29.77 in1008.1 mb - 0.00 in0.0 mm 0.05 in1.3 mm
11:30 PM 36.4°F2.4°C 23.8°F-4.6°C 60% 1.2 mph SSE1.9 kmh SSE 5.8 mph9.3 kmh 29.77 in1008.1 mb - 0.00 in0.0 mm 0.05 in1.3 mm
11:40 PM 36.2°F2.3°C 23.6°F-4.7°C 60% Calm Calm 2.3 mph3.7 kmh 29.76 in1007.8 mb - 0.00 in0.0 mm 0.05 in1.3 mm
11:50 PM 36.1°F2.3°C 23.5°F-4.7°C 60% Calm Calm 4.6 mph7.4 kmh 29.76 in1007.8 mb - 0.00 in0.0 mm 0.05 in1.3 mm